Soldotna, AK

1:08 PM AKDT on April 26, 2015 (GMT -0800)
W. Corral PWS | | Change Station
CLOSE
Current Station
Personal Weather Station
Location: Soldotna, AK
Elevation: 110 ft
Nearby Weather Stations
Active Advisory: Fire Weather Warning Active Notice: Record Report

Elev 110 ft 60.49 °N, 151.08 °W | Updated 8 seconds ago

Mostly Cloudy
Mostly Cloudy
52.9 °F
Feels Like 52.9 °F
N
3.8
Wind Variable Wind from North
Gusts 6.0 mph

Today
High -- | Low -- °F
--% Chance of Precip.
Yesterday
High -- | Low -- °F
Precip. -- in
6:13 AM 9:52 PM
First Quarter, 58% visible
Pressure 29.59 in
Visibility 10.0 miles
Clouds Mostly Cloudy 9000 ft
Dew Point 27 °F
Humidity 36%
Rainfall 0.00 in
Snow Depth Not available.
UV 3 out of 12
Pollen Not available.
Air Quality Not available.
Flu Activity Sporadic
METAR PASX 262056Z AUTO 04009G14KT 10SM BKN090 09/M06 A2959 RMK AO1 57014

More Conditions Fewer Conditions

Pressure 29.59 in
Visibility 10.0 miles
Clouds Mostly Cloudy 9000 ft
Dew Point 27 °F
Humidity 36%
Rainfall 0.00 in
Snow Depth Not available.
UV 3 out of 12
Pollen Not available.
Air Quality Not available.
Flu Activity Sporadic
METAR PASX 262056Z AUTO 04009G14KT 10SM BKN090 09/M06 A2959 RMK AO1 57014

More Conditions Fewer Conditions

10-Day Weather Forecast

Almanac

Astronomy

Apr. 26, 2015 Rise Set
Actual Time
Civil Twilight
Nautical Twilight
Astronomical Twilight
Moon
Length of Visible Light
Length of Day
Tomorrow will be .
, % of the Moon is Illuminated

Today's Extremes

State Highs State Lows

Community

WunderPhotos

Upload Photos

1,817,123 photos uploaded!

WunderBlogs® & News

Nearby

Air Quality

  Air Quality AQ Index Pollutant
Not available.

Snow Depth

Station Depth Elevation

Earthquake Activity

City Distance Mag. Time & Date
Minimum magnitude displayed is 2.5.

Coastal Water Temperatures

Place Temperature

Stations

Nearby Weather Stations

Station Location Temp. Windchill Dew Point Humidity Wind Precip. Elev Updated Type
                   
Fire Weather Warning
Statement as of 4:46 AM AKDT on April 26, 2015

... Red flag warning in effect from 10 am this morning to 10 PM
akdt this evening for strong wind for the Susitna Valley...

The National Weather Service in Anchorage has issued a red flag
warning for strong wind... which is in effect from 10 am this
morning to 10 PM akdt this evening.

* Location... Susitna Valley.

* 20 ft winds... north 10 to 20 mph with gusts to 30 mph.

* Relative humidity... 18 to 25 percent.

* Temperatures... mid 50s to lower 60s.

* Timing... winds will increase through the morning and peak during
the afternoon hours before gradually diminishing overnight
tonight.

Precautionary/preparedness actions...

A red flag warning means that critical fire weather conditions
are imminent or occurring now... or will shortly. It is directed
toward fire agencies... and through them to the public.